createdAt,value
2022-10-09T00:00:19.702Z,8.20
2022-10-09T00:01:19.706Z,8.18
2022-10-09T00:02:19.694Z,8.16
2022-10-09T00:03:19.646Z,8.13
2022-10-09T00:04:19.629Z,8.09
2022-10-09T00:05:19.646Z,8.05
2022-10-09T00:06:19.623Z,8.05
2022-10-09T00:07:19.577Z,7.98
2022-10-09T00:08:19.561Z,8.03
2022-10-09T00:09:19.540Z,8.01
2022-10-09T00:10:19.604Z,8.01
2022-10-09T00:11:19.533Z,8.03
2022-10-09T00:12:19.489Z,7.87
2022-10-09T00:13:19.465Z,7.93
2022-10-09T00:14:19.443Z,7.90
2022-10-09T00:15:19.429Z,7.82
2022-10-09T00:16:19.499Z,7.76
2022-10-09T00:17:19.398Z,7.70
2022-10-09T00:18:19.373Z,7.72
2022-10-09T00:19:19.358Z,7.58
2022-10-09T00:20:19.336Z,7.50
2022-10-09T00:21:19.347Z,7.53
2022-10-09T00:22:19.294Z,7.45
2022-10-09T00:23:19.280Z,7.39
2022-10-09T00:24:19.262Z,7.48
2022-10-09T00:25:19.241Z,7.45
2022-10-09T00:26:19.254Z,7.38
2022-10-09T00:27:19.207Z,7.38
2022-10-09T00:28:19.284Z,7.32
2022-10-09T00:29:19.170Z,7.24
2022-10-09T00:30:19.155Z,7.32
2022-10-09T00:31:19.242Z,7.29
2022-10-09T00:32:19.116Z,7.25
2022-10-09T00:33:19.090Z,7.33
2022-10-09T00:34:20.078Z,7.25
2022-10-09T00:35:19.061Z,7.25
2022-10-09T00:36:19.066Z,7.32
2022-10-09T00:37:19.023Z,7.29
2022-10-09T00:38:19.003Z,7.38
2022-10-09T00:39:18.984Z,7.31
2022-10-09T00:40:18.966Z,7.35
2022-10-09T00:41:18.983Z,7.25
2022-10-09T00:42:18.928Z,7.31
2022-10-09T00:43:18.913Z,7.35
2022-10-09T00:44:18.892Z,7.32
2022-10-09T00:45:18.881Z,7.31
2022-10-09T00:46:18.913Z,7.35
2022-10-09T00:47:18.834Z,7.40
2022-10-09T00:48:18.817Z,7.38
2022-10-09T00:49:18.807Z,7.32
2022-10-09T00:50:18.780Z,7.40
2022-10-09T00:51:18.790Z,7.43
2022-10-09T00:52:18.738Z,7.42
2022-10-09T00:53:18.731Z,7.39
2022-10-09T00:54:18.696Z,7.42
2022-10-09T00:55:18.679Z,7.47
2022-10-09T00:56:18.690Z,7.47
2022-10-09T00:57:18.647Z,7.47
2022-10-09T00:58:18.624Z,7.45
2022-10-09T00:59:18.607Z,7.48
2022-10-09T01:00:18.584Z,7.43
2022-10-09T01:01:19.638Z,7.47
2022-10-09T01:02:18.634Z,7.42
2022-10-09T01:03:18.538Z,7.40
2022-10-09T01:04:18.514Z,7.51
2022-10-09T01:05:18.504Z,7.35
2022-10-09T01:06:18.508Z,7.40
2022-10-09T01:07:18.459Z,7.42
2022-10-09T01:08:18.440Z,7.39
2022-10-09T01:09:18.429Z,7.51
2022-10-09T01:10:18.397Z,7.40
2022-10-09T01:11:19.417Z,7.40
2022-10-09T01:12:18.364Z,7.43
2022-10-09T01:13:18.346Z,7.53
2022-10-09T01:14:18.328Z,7.36
2022-10-09T01:15:18.311Z,7.47
2022-10-09T01:16:22.900Z,7.43
2022-10-09T01:17:19.276Z,7.45
2022-10-09T01:18:18.261Z,7.39
2022-10-09T01:19:18.270Z,7.39
2022-10-09T01:20:18.220Z,7.35
2022-10-09T01:21:18.238Z,7.45
2022-10-09T01:22:18.188Z,7.38
2022-10-09T01:23:18.168Z,7.32
2022-10-09T01:24:18.150Z,7.33
2022-10-09T01:25:18.137Z,7.36
2022-10-09T01:26:18.136Z,7.38
2022-10-09T01:27:18.087Z,7.33
2022-10-09T01:28:18.140Z,7.35
2022-10-09T01:29:18.056Z,7.28
2022-10-09T01:30:18.034Z,7.31
2022-10-09T01:31:18.090Z,7.36
2022-10-09T01:32:17.993Z,7.32
2022-10-09T01:33:17.985Z,7.24
2022-10-09T01:34:17.958Z,7.28
2022-10-09T01:35:17.969Z,7.23
2022-10-09T01:36:17.948Z,7.33
2022-10-09T01:37:17.928Z,7.45
2022-10-09T01:38:17.876Z,7.39
2022-10-09T01:39:17.857Z,7.43
2022-10-09T01:40:17.842Z,7.43
2022-10-09T01:41:17.843Z,7.56
2022-10-09T01:42:17.829Z,7.45
2022-10-09T01:43:17.790Z,7.50
2022-10-09T01:44:17.765Z,7.56
2022-10-09T01:45:17.770Z,7.48
2022-10-09T01:46:17.768Z,7.47
2022-10-09T01:47:17.734Z,7.54
2022-10-09T01:48:17.683Z,7.61
2022-10-09T01:49:17.687Z,7.50
2022-10-09T01:50:17.647Z,7.50
2022-10-09T01:51:17.630Z,7.50
2022-10-09T01:52:17.636Z,7.50
2022-10-09T01:53:17.616Z,7.47
2022-10-09T01:54:17.574Z,7.42
2022-10-09T01:55:17.554Z,7.39
2022-10-09T01:56:17.532Z,7.40
2022-10-09T01:57:17.549Z,7.25
2022-10-09T01:58:17.495Z,7.28
2022-10-09T01:59:17.477Z,7.23
2022-10-09T02:00:17.456Z,7.20
2022-10-09T02:01:17.542Z,7.20
2022-10-09T02:02:17.555Z,7.18
2022-10-09T02:03:17.400Z,7.11
2022-10-09T02:04:17.376Z,7.06
2022-10-09T02:05:17.372Z,7.14
2022-10-09T02:06:17.339Z,7.05
2022-10-09T02:07:17.352Z,7.06
2022-10-09T02:08:17.306Z,6.95
2022-10-09T02:09:17.286Z,6.97
2022-10-09T02:10:17.263Z,6.93
2022-10-09T02:11:17.245Z,6.96
2022-10-09T02:12:17.257Z,6.93
2022-10-09T02:13:17.226Z,6.95
2022-10-09T02:14:17.246Z,6.89
2022-10-09T02:15:17.172Z,7.07
2022-10-09T02:16:17.200Z,6.96
2022-10-09T02:17:17.140Z,6.95
2022-10-09T02:18:17.119Z,6.92
2022-10-09T02:19:17.125Z,6.97
2022-10-09T02:20:17.078Z,7.02
2022-10-09T02:21:17.071Z,6.93
2022-10-09T02:22:17.073Z,6.96
2022-10-09T02:23:17.024Z,7.13
2022-10-09T02:24:17.006Z,7.14
2022-10-09T02:25:17.015Z,7.15
2022-10-09T02:26:16.970Z,7.14
2022-10-09T02:27:16.978Z,7.23
2022-10-09T02:28:17.021Z,7.10
2022-10-09T02:29:16.916Z,7.10
2022-10-09T02:30:16.893Z,7.07
2022-10-09T02:31:17.036Z,7.11
2022-10-09T02:32:16.884Z,7.02
2022-10-09T02:33:16.836Z,7.03
2022-10-09T02:34:16.847Z,6.99
2022-10-09T02:35:16.805Z,6.97
2022-10-09T02:36:16.783Z,6.99
2022-10-09T02:37:16.788Z,6.95
2022-10-09T02:38:16.746Z,6.96
2022-10-09T02:39:16.724Z,6.96
2022-10-09T02:40:16.706Z,6.87
2022-10-09T02:41:16.692Z,6.92
2022-10-09T02:42:16.697Z,7.02
2022-10-09T02:43:16.651Z,6.96
2022-10-09T02:44:16.632Z,7.00
2022-10-09T02:45:16.615Z,7.03
2022-10-09T02:46:16.715Z,7.00
2022-10-09T02:47:16.581Z,6.95
2022-10-09T02:48:16.560Z,7.03
2022-10-09T02:49:16.545Z,7.05
2022-10-09T02:50:16.519Z,6.96
2022-10-09T02:51:16.538Z,7.03
2022-10-09T02:52:16.481Z,7.03
2022-10-09T02:53:16.466Z,6.97
2022-10-09T02:54:16.449Z,6.96
2022-10-09T02:55:16.432Z,7.03
2022-10-09T02:56:16.444Z,6.95
2022-10-09T02:57:16.391Z,6.89
2022-10-09T02:58:16.380Z,6.89
2022-10-09T02:59:16.357Z,6.89
2022-10-09T03:00:16.363Z,6.81
2022-10-09T03:01:16.356Z,6.78
2022-10-09T03:02:16.359Z,6.72
2022-10-09T03:03:16.278Z,6.78
2022-10-09T03:04:16.259Z,6.74
2022-10-09T03:05:16.242Z,6.66
2022-10-09T03:06:16.226Z,6.64
2022-10-09T03:07:16.229Z,6.67
2022-10-09T03:08:16.186Z,6.56
2022-10-09T03:09:16.168Z,6.62
2022-10-09T03:10:16.148Z,6.62
2022-10-09T03:11:16.128Z,6.57
2022-10-09T03:12:16.135Z,6.63
2022-10-09T03:13:16.096Z,6.64
2022-10-09T03:14:16.074Z,6.60
2022-10-09T03:15:16.055Z,6.74
2022-10-09T03:16:16.223Z,6.59
2022-10-09T03:17:16.046Z,6.69
2022-10-09T03:18:15.990Z,6.75
2022-10-09T03:19:15.974Z,6.72
2022-10-09T03:20:16.644Z,6.74
2022-10-09T03:21:15.933Z,6.67
2022-10-09T03:22:15.940Z,6.72
2022-10-09T03:23:15.899Z,6.72
2022-10-09T03:24:15.877Z,6.69
2022-10-09T03:25:15.860Z,6.66
2022-10-09T03:26:15.839Z,6.69
2022-10-09T03:27:15.847Z,6.75
2022-10-09T03:28:15.844Z,6.67
2022-10-09T03:29:15.782Z,6.77
2022-10-09T03:30:15.768Z,6.79
2022-10-09T03:31:33.409Z,6.75
2022-10-09T03:32:17.820Z,6.88
2022-10-09T03:33:15.708Z,6.82
2022-10-09T03:34:15.695Z,6.89
2022-10-09T03:35:15.684Z,6.84
2022-10-09T03:36:15.655Z,6.75
2022-10-09T03:37:15.662Z,6.81
2022-10-09T03:38:15.613Z,6.82
2022-10-09T03:39:15.596Z,6.84
2022-10-09T03:40:15.578Z,6.79
2022-10-09T03:41:15.554Z,6.81
2022-10-09T03:42:15.561Z,6.85
2022-10-09T03:43:15.517Z,6.88
2022-10-09T03:44:15.503Z,6.95
2022-10-09T03:45:15.482Z,6.92
2022-10-09T03:46:15.485Z,6.99
2022-10-09T03:47:15.485Z,6.99
2022-10-09T03:48:15.425Z,6.95
2022-10-09T03:49:15.405Z,7.06
2022-10-09T03:50:15.383Z,7.14
2022-10-09T03:51:15.362Z,6.97
2022-10-09T03:52:15.370Z,6.99
2022-10-09T03:53:15.322Z,7.20
2022-10-09T03:54:15.343Z,7.02
2022-10-09T03:55:15.288Z,7.18
2022-10-09T03:56:15.298Z,7.17
2022-10-09T03:57:15.280Z,7.06
2022-10-09T03:58:15.229Z,7.21
2022-10-09T03:59:15.210Z,7.17
2022-10-09T04:00:15.194Z,7.10
2022-10-09T04:01:15.281Z,7.07
2022-10-09T04:02:15.250Z,7.10
2022-10-09T04:03:15.136Z,7.13
2022-10-09T04:04:15.120Z,7.10
2022-10-09T04:05:15.098Z,7.11
2022-10-09T04:06:15.080Z,7.06
2022-10-09T04:07:15.092Z,7.07
2022-10-09T04:08:15.051Z,7.02
2022-10-09T04:09:15.028Z,7.11
2022-10-09T04:10:15.011Z,7.05
2022-10-09T04:11:14.986Z,7.03
2022-10-09T04:12:14.996Z,6.95
2022-10-09T04:13:14.951Z,6.89
2022-10-09T04:14:14.932Z,6.93
2022-10-09T04:15:14.913Z,7.00
2022-10-09T04:16:14.958Z,6.95
2022-10-09T04:17:14.907Z,7.02
2022-10-09T04:18:14.862Z,7.03
2022-10-09T04:19:14.843Z,6.97
2022-10-09T04:20:14.822Z,7.07
2022-10-09T04:21:14.801Z,7.00
2022-10-09T04:22:14.810Z,7.03
2022-10-09T04:23:14.768Z,7.00
2022-10-09T04:24:14.746Z,7.17
2022-10-09T04:25:14.726Z,7.06
2022-10-09T04:26:14.706Z,7.11
2022-10-09T04:27:14.717Z,7.02
2022-10-09T04:28:14.763Z,7.10
2022-10-09T04:29:14.657Z,7.06
2022-10-09T04:30:14.631Z,7.05
2022-10-09T04:31:14.673Z,7.15
2022-10-09T04:32:14.622Z,7.21
2022-10-09T04:33:14.575Z,7.15
2022-10-09T04:34:14.555Z,7.13
2022-10-09T04:35:14.537Z,7.21
2022-10-09T04:36:14.519Z,7.15
2022-10-09T04:37:14.530Z,7.23
2022-10-09T04:38:14.484Z,7.25
2022-10-09T04:39:14.460Z,7.20
2022-10-09T04:40:14.447Z,7.15
2022-10-09T04:41:14.427Z,7.29
2022-10-09T04:42:14.542Z,7.24
2022-10-09T04:43:14.389Z,7.17
2022-10-09T04:44:14.370Z,7.05
2022-10-09T04:45:14.351Z,7.03
2022-10-09T04:46:14.438Z,7.10
2022-10-09T04:47:14.316Z,7.07
2022-10-09T04:48:14.298Z,7.05
2022-10-09T04:49:14.276Z,7.11
2022-10-09T04:50:14.258Z,7.14
2022-10-09T04:51:14.270Z,7.13
2022-10-09T04:52:14.218Z,7.15
2022-10-09T04:53:14.197Z,7.13
2022-10-09T04:54:14.187Z,6.99
2022-10-09T04:55:14.165Z,7.02
2022-10-09T04:56:14.173Z,7.03
2022-10-09T04:57:14.131Z,7.13
2022-10-09T04:58:14.107Z,6.99
2022-10-09T04:59:14.087Z,7.03
2022-10-09T05:00:14.073Z,7.02
2022-10-09T05:01:14.161Z,7.06
2022-10-09T05:02:14.097Z,7.13
2022-10-09T05:03:14.019Z,7.13
2022-10-09T05:04:13.996Z,7.06
2022-10-09T05:05:13.973Z,7.15
2022-10-09T05:06:13.983Z,7.10
2022-10-09T05:07:13.936Z,7.24
2022-10-09T05:08:13.921Z,7.24
2022-10-09T05:09:13.898Z,7.21
2022-10-09T05:10:13.891Z,7.25
2022-10-09T05:11:13.900Z,7.14
2022-10-09T05:12:13.837Z,7.23
2022-10-09T05:13:13.821Z,7.23
2022-10-09T05:14:13.804Z,7.32
2022-10-09T05:15:13.782Z,7.29
2022-10-09T05:16:13.810Z,7.36
2022-10-09T05:17:15.009Z,7.36
2022-10-09T05:18:14.723Z,7.48
2022-10-09T05:19:13.708Z,7.50
2022-10-09T05:20:13.691Z,7.57
2022-10-09T05:21:13.697Z,7.47
2022-10-09T05:22:13.648Z,7.50
2022-10-09T05:23:13.631Z,7.54
2022-10-09T05:24:13.612Z,7.43
2022-10-09T05:25:13.593Z,7.53
2022-10-09T05:26:13.602Z,7.54
2022-10-09T05:27:13.557Z,7.54
2022-10-09T05:28:13.643Z,7.54
2022-10-09T05:29:13.522Z,7.57
2022-10-09T05:30:13.506Z,7.57
2022-10-09T05:31:13.584Z,7.50
2022-10-09T05:32:13.555Z,7.58
2022-10-09T05:33:13.443Z,7.53
2022-10-09T05:34:13.427Z,7.54
2022-10-09T05:35:13.407Z,7.50
2022-10-09T05:36:13.416Z,7.53
2022-10-09T05:37:13.370Z,7.58
2022-10-09T05:38:13.350Z,7.56
2022-10-09T05:39:13.340Z,7.51
2022-10-09T05:40:13.317Z,7.47
2022-10-09T05:41:13.318Z,7.50
2022-10-09T05:42:14.279Z,7.48
2022-10-09T05:43:13.262Z,7.63
2022-10-09T05:44:13.241Z,7.63
2022-10-09T05:45:13.227Z,7.70
2022-10-09T05:46:13.242Z,7.61
2022-10-09T05:47:13.178Z,7.75
2022-10-09T05:48:13.163Z,7.79
2022-10-09T05:49:13.145Z,7.80
2022-10-09T05:50:13.126Z,7.79
2022-10-09T05:51:13.135Z,7.79
2022-10-09T05:52:13.087Z,7.77
2022-10-09T05:53:13.073Z,7.85
2022-10-09T05:54:13.051Z,7.87
2022-10-09T05:55:13.032Z,7.88
2022-10-09T05:56:13.039Z,7.91
2022-10-09T05:57:13.012Z,8.01
2022-10-09T05:58:13.978Z,8.06
2022-10-09T05:59:12.959Z,8.45
2022-10-09T06:00:12.947Z,8.76
2022-10-09T06:01:12.944Z,9.31
2022-10-09T06:02:12.976Z,9.62
2022-10-09T06:03:12.888Z,9.86
2022-10-09T06:04:12.868Z,10.22
2022-10-09T06:05:12.847Z,10.54
2022-10-09T06:06:12.830Z,10.78
2022-10-09T06:07:12.840Z,10.99
2022-10-09T06:08:12.786Z,11.15
2022-10-09T06:09:13.774Z,11.35
2022-10-09T06:10:12.754Z,11.55
2022-10-09T06:11:12.740Z,11.72
2022-10-09T06:12:12.747Z,12.29
2022-10-09T06:13:12.706Z,12.37
2022-10-09T06:14:12.687Z,12.61
2022-10-09T06:15:12.669Z,12.75
2022-10-09T06:16:12.669Z,12.93
2022-10-09T06:17:12.653Z,13.41
2022-10-09T06:18:12.606Z,13.52
2022-10-09T06:19:12.592Z,13.63
2022-10-09T06:20:12.566Z,14.03
2022-10-09T06:21:12.546Z,14.50
2022-10-09T06:22:12.553Z,14.51
2022-10-09T06:23:12.504Z,15.03
2022-10-09T06:24:12.478Z,15.52
2022-10-09T06:25:12.453Z,15.84
2022-10-09T06:26:12.429Z,15.61
2022-10-09T06:27:12.437Z,15.83
2022-10-09T06:28:12.425Z,15.84
2022-10-09T06:29:12.369Z,16.04
2022-10-09T06:30:12.359Z,15.88
2022-10-09T06:31:12.355Z,15.75
2022-10-09T06:32:12.339Z,16.12
2022-10-09T06:33:12.286Z,16.53
2022-10-09T06:34:12.273Z,17.02
2022-10-09T06:35:12.248Z,17.54
2022-10-09T06:36:12.237Z,17.70
2022-10-09T06:37:12.247Z,18.07
2022-10-09T06:38:12.277Z,18.38
2022-10-09T06:39:12.177Z,17.94
2022-10-09T06:40:12.164Z,17.42
2022-10-09T06:41:12.141Z,17.49
2022-10-09T06:42:12.159Z,17.89
2022-10-09T06:43:12.108Z,18.33
2022-10-09T06:44:16.408Z,18.11
2022-10-09T06:45:13.070Z,17.94
2022-10-09T06:46:12.094Z,17.85
2022-10-09T06:47:12.059Z,18.07
2022-10-09T06:48:12.005Z,18.35
2022-10-09T06:49:12.990Z,18.89
2022-10-09T06:50:12.013Z,18.81
2022-10-09T06:51:11.958Z,18.93
2022-10-09T06:52:11.970Z,18.43
2022-10-09T06:53:11.922Z,18.13
2022-10-09T06:54:11.900Z,18.58
2022-10-09T06:55:11.880Z,18.53
2022-10-09T06:56:11.870Z,18.43
2022-10-09T06:57:11.874Z,18.03
2022-10-09T06:58:11.827Z,17.86
2022-10-09T06:59:11.815Z,18.35
2022-10-09T07:00:11.790Z,18.59
2022-10-09T07:01:11.844Z,18.19
2022-10-09T07:02:11.859Z,18.11
2022-10-09T07:03:11.798Z,18.58
2022-10-09T07:04:11.721Z,19.02
2022-10-09T07:05:11.701Z,18.33
2022-10-09T07:06:11.683Z,18.10
2022-10-09T07:07:11.697Z,18.05
2022-10-09T07:08:11.645Z,18.44
2022-10-09T07:09:11.630Z,18.55
2022-10-09T07:10:11.609Z,18.71
2022-10-09T07:11:11.592Z,18.53
2022-10-09T07:12:11.598Z,18.88
2022-10-09T07:13:11.553Z,18.49
2022-10-09T07:14:11.534Z,18.96
2022-10-09T07:15:11.515Z,19.22
2022-10-09T07:16:11.625Z,19.48
2022-10-09T07:17:11.503Z,19.66
2022-10-09T07:18:11.458Z,20.09
2022-10-09T07:19:11.614Z,19.70
2022-10-09T07:20:11.421Z,19.18
2022-10-09T07:21:11.403Z,18.89
2022-10-09T07:22:11.412Z,19.16
2022-10-09T07:23:11.371Z,19.30
2022-10-09T07:24:11.358Z,19.70
2022-10-09T07:25:11.331Z,20.31
2022-10-09T07:26:11.311Z,20.65
2022-10-09T07:27:11.316Z,19.76
2022-10-09T07:28:11.327Z,19.63
2022-10-09T07:29:11.255Z,19.58
2022-10-09T07:30:11.236Z,19.71
2022-10-09T07:31:11.404Z,19.94
2022-10-09T07:32:11.228Z,20.32
2022-10-09T07:33:11.182Z,20.60
2022-10-09T07:34:11.161Z,19.94
2022-10-09T07:35:11.143Z,19.73
2022-10-09T07:36:11.125Z,19.34
2022-10-09T07:37:11.137Z,19.79
2022-10-09T07:38:11.088Z,20.09
2022-10-09T07:39:11.068Z,20.19
2022-10-09T07:40:11.049Z,18.96
2022-10-09T07:41:11.034Z,19.02
2022-10-09T07:42:11.040Z,19.16
2022-10-09T07:43:10.991Z,19.31
2022-10-09T07:44:10.972Z,19.00
2022-10-09T07:45:10.952Z,18.75
2022-10-09T07:46:10.965Z,18.45
2022-10-09T07:47:10.943Z,17.92
2022-10-09T07:48:10.895Z,17.51
2022-10-09T07:49:10.876Z,18.05
2022-10-09T07:50:10.858Z,18.33
2022-10-09T07:51:10.844Z,18.66
2022-10-09T07:52:10.855Z,18.70
2022-10-09T07:53:10.808Z,18.41
2022-10-09T07:54:10.785Z,17.95
2022-10-09T07:55:10.773Z,17.79
2022-10-09T07:56:10.750Z,17.20
2022-10-09T07:57:10.760Z,17.12
2022-10-09T07:58:10.713Z,16.90
2022-10-09T07:59:10.691Z,16.66
2022-10-09T08:00:10.674Z,16.15
2022-10-09T08:01:10.722Z,16.41
2022-10-09T08:02:10.729Z,16.02
2022-10-09T08:03:10.654Z,16.41
2022-10-09T08:04:10.599Z,16.60
2022-10-09T08:05:10.587Z,16.13
2022-10-09T08:06:10.566Z,16.26
2022-10-09T08:07:10.573Z,16.76
2022-10-09T08:08:10.526Z,16.91
2022-10-09T08:09:10.509Z,16.89
2022-10-09T08:10:10.485Z,16.72
2022-10-09T08:11:10.467Z,17.06
2022-10-09T08:12:10.478Z,17.29
2022-10-09T08:13:10.428Z,17.49
2022-10-09T08:14:11.685Z,17.94
2022-10-09T08:15:10.396Z,17.83
2022-10-09T08:16:10.412Z,17.65
2022-10-09T08:17:10.391Z,16.93
2022-10-09T08:18:10.338Z,17.16
2022-10-09T08:19:10.321Z,17.97
2022-10-09T08:20:10.304Z,18.08
2022-10-09T08:21:10.282Z,17.63
2022-10-09T08:22:11.295Z,16.75
2022-10-09T08:23:10.244Z,16.01
2022-10-09T08:24:10.227Z,15.70
2022-10-09T08:25:10.235Z,16.16
2022-10-09T08:26:10.193Z,16.51
2022-10-09T08:27:10.202Z,17.05
2022-10-09T08:28:10.228Z,17.30
2022-10-09T08:29:10.139Z,17.57
2022-10-09T08:30:10.118Z,17.02
2022-10-09T08:31:10.160Z,17.19
2022-10-09T08:32:10.105Z,17.19
2022-10-09T08:33:10.060Z,17.78
2022-10-09T08:34:10.042Z,17.29
2022-10-09T08:35:10.027Z,17.01
2022-10-09T08:36:10.080Z,17.15
2022-10-09T08:37:10.022Z,16.74
2022-10-09T08:38:21.275Z,16.35
2022-10-09T08:39:10.959Z,16.01
2022-10-09T08:40:09.933Z,15.65
2022-10-09T08:41:09.914Z,15.02
2022-10-09T08:42:09.923Z,14.85
2022-10-09T08:43:09.879Z,14.70
2022-10-09T08:44:09.862Z,14.58
2022-10-09T08:45:09.840Z,14.15
2022-10-09T08:46:09.922Z,14.17
2022-10-09T08:47:09.833Z,14.51
2022-10-09T08:48:09.787Z,14.65
2022-10-09T08:49:09.768Z,14.50
2022-10-09T08:50:09.749Z,14.51
2022-10-09T08:51:09.729Z,14.44
2022-10-09T08:52:09.739Z,14.68
2022-10-09T08:53:09.704Z,14.69
2022-10-09T08:54:09.683Z,15.10
2022-10-09T08:55:09.658Z,15.15
2022-10-09T08:56:09.641Z,15.02
2022-10-09T08:57:09.649Z,15.04
2022-10-09T08:58:09.601Z,14.97
2022-10-09T08:59:09.584Z,15.67
2022-10-09T09:00:09.568Z,16.00
2022-10-09T09:01:09.547Z,16.53
2022-10-09T09:02:09.611Z,16.71
2022-10-09T09:03:09.540Z,16.65
2022-10-09T09:04:09.491Z,17.08
2022-10-09T09:05:09.471Z,16.33
2022-10-09T09:06:09.451Z,16.04
2022-10-09T09:07:09.461Z,15.36
2022-10-09T09:08:09.416Z,15.22
2022-10-09T09:09:09.395Z,14.91
2022-10-09T09:10:09.380Z,14.92
2022-10-09T09:11:09.367Z,15.11
2022-10-09T09:12:09.363Z,14.89
2022-10-09T09:13:10.322Z,14.73
2022-10-09T09:14:09.303Z,14.50
2022-10-09T09:15:09.286Z,14.51
2022-10-09T09:16:09.296Z,14.53
2022-10-09T09:17:09.271Z,14.47
2022-10-09T09:18:09.231Z,14.65
2022-10-09T09:19:09.208Z,14.58
2022-10-09T09:20:09.186Z,14.65
2022-10-09T09:21:09.170Z,14.70
2022-10-09T09:22:09.178Z,14.65
2022-10-09T09:23:09.132Z,14.66
2022-10-09T09:24:09.116Z,14.62
2022-10-09T09:25:09.097Z,14.54
2022-10-09T09:26:09.076Z,14.68
2022-10-09T09:27:09.086Z,14.70
2022-10-09T09:28:12.352Z,14.91
2022-10-09T09:29:10.027Z,15.14
2022-10-09T09:30:09.000Z,15.02
2022-10-09T09:31:09.022Z,15.06
2022-10-09T09:32:08.993Z,15.29
2022-10-09T09:33:08.946Z,15.24
2022-10-09T09:34:08.923Z,15.28
2022-10-09T09:35:08.910Z,15.17
2022-10-09T09:36:08.890Z,14.97
2022-10-09T09:37:08.900Z,15.14
2022-10-09T09:38:08.854Z,15.24
2022-10-09T09:40:43.197Z,15.68
2022-10-09T09:41:10.798Z,15.72
2022-10-09T09:42:08.802Z,15.59
2022-10-09T09:43:08.754Z,15.73
2022-10-09T09:44:08.737Z,15.42
2022-10-09T09:45:08.715Z,15.31
2022-10-09T09:46:08.747Z,15.28
2022-10-09T09:47:08.703Z,15.57
2022-10-09T09:48:08.657Z,15.51
2022-10-09T09:49:09.510Z,15.25
2022-10-09T09:50:23.367Z,15.43
2022-10-09T09:51:27.627Z,15.17
2022-10-09T09:52:10.623Z,15.19
2022-10-09T09:53:08.569Z,15.11
2022-10-09T09:54:08.547Z,14.60
2022-10-09T09:55:08.528Z,15.06
2022-10-09T09:56:08.513Z,15.06
2022-10-09T09:57:13.761Z,14.96
2022-10-09T09:58:10.470Z,15.11
2022-10-09T09:59:08.454Z,15.03
2022-10-09T10:00:08.441Z,15.00
2022-10-09T10:01:08.444Z,14.79
2022-10-09T10:02:08.483Z,15.00
2022-10-09T10:03:08.373Z,15.07
2022-10-09T10:04:08.354Z,15.36
2022-10-09T10:05:08.336Z,15.52
2022-10-09T10:06:08.320Z,15.64
2022-10-09T10:07:08.324Z,15.54
2022-10-09T10:08:08.281Z,15.43
2022-10-09T10:09:08.258Z,15.75
2022-10-09T10:10:08.241Z,15.97
2022-10-09T10:11:08.228Z,15.68
2022-10-09T10:12:08.230Z,15.33
2022-10-09T10:13:08.183Z,15.18
2022-10-09T10:14:08.162Z,14.69
2022-10-09T10:15:08.154Z,14.48
2022-10-09T10:16:08.219Z,14.36
2022-10-09T10:17:08.134Z,14.10
2022-10-09T10:18:08.092Z,14.26
2022-10-09T10:19:08.072Z,14.35
2022-10-09T10:20:08.051Z,14.20
2022-10-09T10:21:08.054Z,14.22
2022-10-09T10:22:08.037Z,14.11
2022-10-09T10:23:07.991Z,14.12
2022-10-09T10:24:07.969Z,14.18
2022-10-09T10:25:10.520Z,14.36
2022-10-09T10:26:07.933Z,14.20
2022-10-09T10:27:07.935Z,14.14
2022-10-09T10:28:07.936Z,14.03
2022-10-09T10:29:07.869Z,14.04
2022-10-09T10:30:07.858Z,14.14
2022-10-09T10:31:07.857Z,14.23
2022-10-09T10:32:07.837Z,14.25
2022-10-09T10:33:07.792Z,14.03
2022-10-09T10:34:07.768Z,14.17
2022-10-09T10:35:07.746Z,14.25
2022-10-09T10:36:07.727Z,14.32
2022-10-09T10:37:07.729Z,14.30
2022-10-09T10:38:07.682Z,14.43
2022-10-09T10:39:07.659Z,14.55
2022-10-09T10:40:07.638Z,14.78
2022-10-09T10:41:07.618Z,14.60
2022-10-09T10:42:07.621Z,14.47
2022-10-09T10:43:07.574Z,14.32
2022-10-09T10:44:07.560Z,14.59
2022-10-09T10:45:07.528Z,14.35
2022-10-09T10:46:07.506Z,14.15
2022-10-09T10:47:07.513Z,13.93
2022-10-09T10:48:07.466Z,13.90
2022-10-09T10:49:07.443Z,13.92
2022-10-09T10:50:07.421Z,13.78
2022-10-09T10:51:07.397Z,13.67
2022-10-09T10:52:07.409Z,13.72
2022-10-09T10:53:07.810Z,13.75
2022-10-09T10:54:07.329Z,13.60
2022-10-09T10:55:07.307Z,13.85
2022-10-09T10:56:07.284Z,13.86
2022-10-09T10:57:07.291Z,13.96
2022-10-09T10:58:07.239Z,13.92
2022-10-09T10:59:07.219Z,14.05
2022-10-09T11:00:07.197Z,14.07
2022-10-09T11:01:07.205Z,14.03
2022-10-09T11:02:07.182Z,13.95
2022-10-09T11:03:07.159Z,13.97
2022-10-09T11:04:07.106Z,13.95
2022-10-09T11:05:07.081Z,14.05
2022-10-09T11:06:08.060Z,14.03
2022-10-09T11:07:07.067Z,13.96
2022-10-09T11:08:07.010Z,14.15
2022-10-09T11:09:06.991Z,14.29
2022-10-09T11:10:06.967Z,14.41
2022-10-09T11:11:06.947Z,14.36
2022-10-09T11:12:10.052Z,14.54
2022-10-09T11:13:07.901Z,14.51
2022-10-09T11:14:06.883Z,14.69
2022-10-09T11:15:06.860Z,14.84
2022-10-09T11:16:06.853Z,15.03
2022-10-09T11:17:06.841Z,15.02
2022-10-09T11:18:06.799Z,14.88
2022-10-09T11:19:06.769Z,14.79
2022-10-09T11:20:06.747Z,14.79
2022-10-09T11:21:06.738Z,14.99
2022-10-09T11:22:06.755Z,15.19
2022-10-09T11:23:06.684Z,15.19
2022-10-09T11:24:06.661Z,15.07
2022-10-09T11:25:06.636Z,15.07
2022-10-09T11:26:06.604Z,15.10
2022-10-09T11:27:07.614Z,15.27
2022-10-09T11:28:06.604Z,15.25
2022-10-09T11:29:06.540Z,15.29
2022-10-09T11:30:06.521Z,15.07
2022-10-09T11:31:06.557Z,15.24
2022-10-09T11:32:06.570Z,15.27
2022-10-09T11:33:06.453Z,15.22
2022-10-09T11:34:06.429Z,15.03
2022-10-09T11:35:06.408Z,14.66
2022-10-09T11:36:06.386Z,14.66
2022-10-09T11:37:06.391Z,14.70
2022-10-09T11:38:08.114Z,14.86
2022-10-09T11:39:07.318Z,14.89
2022-10-09T11:40:06.291Z,14.78
2022-10-09T11:41:07.315Z,14.78
2022-10-09T11:42:07.278Z,14.96
2022-10-09T11:43:06.230Z,14.97
2022-10-09T11:44:06.210Z,15.11
2022-10-09T11:45:06.182Z,15.22
2022-10-09T11:46:06.227Z,15.02
2022-10-09T11:47:09.482Z,15.03
2022-10-09T11:48:07.115Z,14.88
2022-10-09T11:49:06.089Z,14.58
2022-10-09T11:50:06.067Z,14.23
2022-10-09T11:51:06.044Z,14.30
2022-10-09T11:52:06.051Z,14.47
2022-10-09T11:53:06.003Z,14.54
2022-10-09T11:54:05.983Z,14.70
2022-10-09T11:55:05.953Z,14.77
2022-10-09T11:56:05.932Z,14.81
2022-10-09T11:57:06.596Z,14.77
2022-10-09T11:58:06.886Z,14.82
2022-10-09T11:59:05.874Z,14.85
2022-10-09T12:00:05.850Z,14.85
2022-10-09T12:01:05.851Z,14.85
2022-10-09T12:02:05.895Z,14.91
2022-10-09T12:03:05.775Z,15.04
2022-10-09T12:04:05.749Z,15.11
2022-10-09T12:05:05.728Z,15.14
2022-10-09T12:06:05.699Z,15.06
2022-10-09T12:07:05.681Z,15.21
2022-10-09T12:08:05.684Z,15.18
2022-10-09T12:09:05.636Z,15.19
2022-10-09T12:10:05.614Z,14.94
2022-10-09T12:11:05.590Z,14.82
2022-10-09T12:12:05.598Z,14.68
2022-10-09T12:13:05.550Z,14.79
2022-10-09T12:14:05.525Z,14.62
2022-10-09T12:15:05.502Z,14.60
2022-10-09T12:16:05.474Z,14.51
2022-10-09T12:17:05.482Z,14.33
2022-10-09T12:18:05.435Z,14.20
2022-10-09T12:19:05.412Z,14.17
2022-10-09T12:20:05.385Z,14.33
2022-10-09T12:21:05.366Z,14.44
2022-10-09T12:22:05.368Z,14.51
2022-10-09T12:23:25.754Z,14.51
2022-10-09T12:24:07.300Z,14.50
2022-10-09T12:25:05.280Z,14.51
2022-10-09T12:26:05.266Z,14.35
2022-10-09T12:27:05.255Z,14.36
2022-10-09T12:28:05.268Z,14.41
2022-10-09T12:29:05.183Z,14.45
2022-10-09T12:30:05.160Z,14.45
2022-10-09T12:31:05.200Z,14.37
2022-10-09T12:32:05.118Z,14.22
2022-10-09T12:33:05.092Z,14.26
2022-10-09T12:34:05.070Z,14.40
2022-10-09T12:35:05.046Z,14.29
2022-10-09T12:36:05.065Z,14.15
2022-10-09T12:37:05.023Z,14.10
2022-10-09T12:38:04.977Z,14.08
2022-10-09T12:39:04.953Z,13.99
2022-10-09T12:40:04.954Z,13.85
2022-10-09T12:41:04.951Z,13.93
2022-10-09T12:42:04.893Z,14.04
2022-10-09T12:43:04.873Z,14.04
2022-10-09T12:44:04.852Z,13.97
2022-10-09T12:45:04.828Z,14.11
2022-10-09T12:46:04.868Z,14.05
2022-10-09T12:47:04.779Z,14.08
2022-10-09T12:48:04.754Z,14.14
2022-10-09T12:49:04.734Z,14.05
2022-10-09T12:50:04.776Z,14.05
2022-10-09T12:51:04.719Z,14.10
2022-10-09T12:52:04.667Z,14.22
2022-10-09T12:53:04.655Z,14.23
2022-10-09T12:54:04.626Z,14.37
2022-10-09T12:55:04.606Z,14.28
2022-10-09T12:56:04.610Z,14.22
2022-10-09T12:57:04.562Z,14.26
2022-10-09T12:58:04.536Z,14.28
2022-10-09T12:59:04.516Z,14.33
2022-10-09T13:00:04.489Z,14.30
2022-10-09T13:01:04.582Z,14.29
2022-10-09T13:02:04.673Z,14.36
2022-10-09T13:03:04.427Z,14.37
2022-10-09T13:04:04.426Z,14.36
2022-10-09T13:05:04.383Z,14.35